Time;durP1;ratioP1;P1;durP2;ratioP2;P2;SDS_P1;SDS_P2;PMS_P1;PMS_P2;Temp;Humidity;BMP_temperature;BMP_pressure;BME280_temperature;BME280_humidity;BME280_pressure;Samples;Min_cycle;Max_cycle;Signal;HPM_P1;HPM_P2
2023/06/27 00:02:27;;;;;;;3.95;1.35;;;;;;;16.39;67.87;101036.13;5035761;28;20510;-76
2023/06/27 00:05:30;;;;;;;7.90;1.48;;;;;;;16.37;67.93;101043.28;5035637;28;20107;-76
2023/06/27 00:08:34;;;;;;;3.58;1.40;;;;;;;16.34;68.25;101041.72;5035776;28;20079;-76
2023/06/27 00:11:38;;;;;;;5.95;1.73;;;;;;;16.19;68.75;101042.78;5035569;28;20146;-74
2023/06/27 00:14:44;;;;;;;3.95;1.27;;;;;;;16.17;68.91;101042.84;5023160;28;20415;-74
2023/06/27 00:17:48;;;;;;;4.00;1.38;;;;;;;16.08;68.96;101043.50;5035625;28;20080;-75
2023/06/27 00:20:51;;;;;;;4.57;1.10;;;;;;;16.11;68.88;101053.81;5034602;28;20044;-74
2023/06/27 00:23:56;;;;;;;2.28;1.00;;;;;;;16.09;69.01;101057.53;5035251;28;20049;-75
2023/06/27 00:27:00;;;;;;;4.72;1.17;;;;;;;16.10;68.85;101046.03;5035342;28;20068;-75
2023/06/27 00:30:04;;;;;;;3.65;1.45;;;;;;;16.10;69.13;101056.56;5034989;28;20057;-75
2023/06/27 00:33:11;;;;;;;7.13;1.98;;;;;;;16.08;69.31;101054.06;5022932;28;20051;-75
2023/06/27 00:36:14;;;;;;;6.43;1.77;;;;;;;16.04;69.58;101063.09;5023168;28;20581;-75
2023/06/27 00:39:17;;;;;;;6.15;1.48;;;;;;;15.93;69.58;101055.06;5035276;28;20111;-75
2023/06/27 00:42:21;;;;;;;4.80;1.23;;;;;;;15.82;69.49;101063.66;5034949;28;20080;-75
2023/06/27 00:45:24;;;;;;;6.68;1.60;;;;;;;15.92;69.22;101063.91;5034946;28;20079;-76
2023/06/27 00:48:28;;;;;;;4.32;1.25;;;;;;;15.96;68.78;101060.97;5022554;28;20521;-75
2023/06/27 00:51:32;;;;;;;3.40;1.30;;;;;;;15.73;69.29;101059.88;5022098;28;20128;-75
2023/06/27 00:54:36;;;;;;;4.80;1.35;;;;;;;15.69;69.45;101058.34;5034666;28;20115;-76
2023/06/27 00:57:40;;;;;;;5.60;1.33;;;;;;;15.51;70.26;101065.66;5034957;28;20044;-75
2023/06/27 01:00:43;;;;;;;4.40;1.52;;;;;;;15.73;69.30;101059.00;5034629;28;20107;-75
2023/06/27 01:03:47;;;;;;;5.85;1.85;;;;;;;15.61;69.72;101067.69;5034551;28;20090;-76
2023/06/27 01:07:13;;;;;;;4.43;1.38;;;;;;;15.51;69.73;101064.81;5034413;28;20563;-76
2023/06/27 01:10:36;;;;;;;6.00;1.55;;;;;;;15.37;70.32;101057.75;5034295;28;20180;-76
2023/06/27 01:13:49;;;;;;;6.10;1.15;;;;;;;15.38;70.39;101067.38;5034457;28;20100;-76
2023/06/27 01:16:52;;;;;;;7.60;1.80;;;;;;;15.38;70.49;101066.50;5022167;28;20080;-76
2023/06/27 01:19:56;;;;;;;8.27;2.10;;;;;;;15.30;71.03;101062.56;5021930;28;20048;-76
2023/06/27 01:23:24;;;;;;;5.53;1.33;;;;;;;15.26;71.24;101060.25;5022003;28;20067;-75
2023/06/27 01:26:28;;;;;;;3.35;1.10;;;;;;;15.22;71.52;101053.47;5034151;28;20048;-76
2023/06/27 01:29:32;;;;;;;2.95;1.33;;;;;;;15.09;71.68;101056.03;5034051;28;20073;-76
2023/06/27 01:32:37;;;;;;;3.03;1.33;;;;;;;15.07;71.85;101066.66;5034147;28;20068;-76
2023/06/27 01:35:51;;;;;;;6.15;1.50;;;;;;;15.05;71.83;101068.53;5034295;28;20052;-76
2023/06/27 01:39:02;;;;;;;3.00;1.30;;;;;;;15.02;72.61;101060.81;5032909;28;20072;-75
2023/06/27 01:42:15;;;;;;;5.13;1.27;;;;;;;14.97;72.83;101062.91;5033826;28;20187;-76
2023/06/27 01:45:21;;;;;;;3.50;1.40;;;;;;;15.02;72.85;101068.72;5033687;28;20048;-76
2023/06/27 01:48:25;;;;;;;4.03;1.50;;;;;;;14.89;73.56;101062.53;5033717;28;20080;-76
2023/06/27 01:51:28;;;;;;;4.95;1.45;;;;;;;14.91;73.68;101062.47;5021379;28;20048;-75
2023/06/27 01:54:31;;;;;;;3.97;1.27;;;;;;;14.83;73.81;101078.72;5033465;28;20111;-75
2023/06/27 01:57:36;;;;;;;2.78;1.17;;;;;;;14.88;73.81;101058.22;5033446;28;20410;-75
2023/06/27 02:00:39;;;;;;;6.68;1.50;;;;;;;14.91;73.94;101062.47;5021167;28;20183;-75
2023/06/27 02:03:43;;;;;;;2.97;1.25;;;;;;;14.86;74.04;101057.47;5032921;28;20513;-75
2023/06/27 02:06:46;;;;;;;6.30;1.65;;;;;;;14.88;73.99;101066.97;5033365;28;20056;-75
2023/06/27 02:09:49;;;;;;;3.63;1.23;;;;;;;14.88;73.81;101058.22;5019865;28;20048;-75
2023/06/27 02:12:53;;;;;;;3.13;1.13;;;;;;;14.92;74.41;101057.09;5031024;28;20442;-75
2023/06/27 02:15:56;;;;;;;5.13;2.10;;;;;;;15.10;73.36;101055.94;5018853;28;20526;-75
2023/06/27 02:19:00;;;;;;;4.38;1.30;;;;;;;14.96;73.83;101053.31;5031256;28;20049;-75
2023/06/27 02:22:04;;;;;;;4.90;1.50;;;;;;;14.91;74.41;101058.03;5030801;28;20052;-75
2023/06/27 02:25:07;;;;;;;4.53;1.45;;;;;;;15.07;73.48;101060.56;5031097;28;20040;-75
2023/06/27 02:28:10;;;;;;;6.50;1.73;;;;;;;14.96;73.66;101057.72;5030856;28;20045;-75
2023/06/27 02:31:15;;;;;;;3.60;1.45;;;;;;;14.92;74.12;101056.25;5019511;28;20530;-75
2023/06/27 02:34:19;;;;;;;5.18;1.35;;;;;;;14.96;74.16;101058.56;5032782;28;20048;-75
2023/06/27 02:37:22;;;;;;;4.95;1.60;;;;;;;14.97;73.82;101054.19;5032701;28;20570;-75
2023/06/27 02:40:28;;;;;;;6.28;1.55;;;;;;;14.95;74.01;101056.91;5033014;28;20410;-75
2023/06/27 02:43:31;;;;;;;3.13;1.13;;;;;;;14.88;74.29;101055.59;5032723;28;20044;-76
2023/06/27 02:46:35;;;;;;;5.50;1.73;;;;;;;14.76;75.04;101067.72;5031813;28;20109;-76
2023/06/27 02:49:38;;;;;;;4.88;1.50;;;;;;;14.68;75.11;101069.09;5032631;28;20106;-75
2023/06/27 02:52:41;;;;;;;4.50;1.38;;;;;;;14.76;75.19;101072.13;5032597;28;20061;-75
2023/06/27 02:55:45;;;;;;;6.05;1.50;;;;;;;14.55;75.89;101069.00;5020161;28;20076;-75
2023/06/27 02:58:49;;;;;;;6.38;1.95;;;;;;;14.61;75.66;101087.06;5027848;28;20087;-75
2023/06/27 03:01:53;;;;;;;3.72;1.40;;;;;;;14.60;75.75;101091.47;5020009;28;20049;-75
2023/06/27 03:04:56;;;;;;;5.63;1.40;;;;;;;14.61;75.84;101084.44;5020127;28;20074;-76
2023/06/27 03:07:59;;;;;;;4.03;1.23;;;;;;;14.55;75.79;101080.41;5032298;28;20087;-76
2023/06/27 03:11:03;;;;;;;3.45;1.83;;;;;;;14.54;76.10;101077.84;5019899;28;20436;-76
2023/06/27 03:14:06;;;;;;;3.65;1.45;;;;;;;14.50;76.25;101074.53;5031940;28;20091;-76
2023/06/27 03:17:09;;;;;;;4.78;1.90;;;;;;;14.50;76.54;101071.06;5032077;28;20049;-76
2023/06/27 03:20:13;;;;;;;6.47;1.55;;;;;;;14.41;76.78;101080.34;5032377;28;20518;-76
2023/06/27 03:23:16;;;;;;;5.22;1.20;;;;;;;14.39;77.22;101082.22;5031403;28;20053;-75
2023/06/27 03:26:23;;;;;;;6.45;1.60;;;;;;;14.37;77.59;101081.47;5020154;28;20144;-75
2023/06/27 03:29:27;;;;;;;4.93;1.42;;;;;;;14.44;77.47;101082.78;5030715;28;20095;-76
2023/06/27 03:32:30;;;;;;;7.25;1.83;;;;;;;14.55;77.11;101090.94;5032145;28;20530;-76
2023/06/27 03:35:33;;;;;;;2.88;1.63;;;;;;;14.58;77.07;101098.63;5019823;28;20485;-74
2023/06/27 03:38:37;;;;;;;5.60;1.85;;;;;;;14.43;77.96;101095.09;5031853;28;20123;-75
2023/06/27 03:41:40;;;;;;;;;;;;;;;14.64;77.59;101098.28;5032340;28;20087;-76
2023/06/27 03:44:45;;;;;;;4.85;1.48;;;;;;;14.86;76.50;101100.44;5019713;28;19952;-74
2023/06/27 03:47:48;;;;;;;4.82;1.65;;;;;;;14.59;76.99;101108.22;5031779;28;20126;-75
2023/06/27 03:50:51;;;;;;;4.00;1.52;;;;;;;14.58;77.97;101101.28;5032098;28;20060;-76
2023/06/27 03:53:55;;;;;;;4.18;1.50;;;;;;;14.63;77.10;101099.19;5031767;28;20159;-76
2023/06/27 03:56:58;;;;;;;4.82;1.67;;;;;;;14.51;77.90;101094.66;5032041;28;20052;-73
2023/06/27 04:00:03;;;;;;;4.53;1.50;;;;;;;14.46;78.19;101103.75;5032044;28;20068;-76
2023/06/27 04:03:18;;;;;;;3.00;1.35;;;;;;;14.41;78.40;101104.84;5031694;28;20041;-79
2023/06/27 04:06:22;;;;;;;4.60;1.20;;;;;;;14.59;78.11;101092.44;5030677;28;20415;-75
2023/06/27 04:09:26;;;;;;;3.38;1.63;;;;;;;14.70;77.43;101101.47;5023225;28;20040;-77
2023/06/27 04:12:29;;;;;;;3.45;1.50;;;;;;;14.74;77.22;101100.31;5030645;28;20044;-79
2023/06/27 04:15:39;;;;;;;9.15;2.50;;;;;;;14.74;77.36;101101.19;5019394;28;20075;-69
2023/06/27 04:18:44;;;;;;;6.13;2.70;;;;;;;14.72;77.78;101096.97;5019086;28;20045;-78
2023/06/27 04:21:47;;;;;;;5.57;1.70;;;;;;;14.75;78.06;101102.88;5019444;28;20160;-78
2023/06/27 04:24:50;;;;;;;5.20;1.77;;;;;;;14.85;77.31;101100.53;5031628;28;20044;-79
2023/06/27 04:27:54;;;;;;;3.83;1.75;;;;;;;14.86;78.01;101104.84;5035549;28;20402;-79
2023/06/27 04:30:59;;;;;;;4.03;1.70;;;;;;;14.77;77.26;101105.41;5034849;28;20128;-77
2023/06/27 04:34:03;;;;;;;4.78;1.58;;;;;;;14.71;77.77;101101.38;5034842;28;20152;-78
2023/06/27 04:37:06;;;;;;;5.45;1.75;;;;;;;14.77;77.98;101102.78;5034946;28;20099;-76
2023/06/27 04:40:12;;;;;;;5.63;1.60;;;;;;;14.94;77.80;101101.78;5033608;28;20055;-77
2023/06/27 04:43:17;;;;;;;5.55;1.85;;;;;;;14.97;76.90;101106.84;5021667;28;20049;-75
2023/06/27 04:46:20;;;;;;;3.70;1.40;;;;;;;15.09;76.55;101109.56;5033787;28;20048;-76
2023/06/27 04:49:23;;;;;;;5.13;1.65;;;;;;;15.01;76.30;101096.00;5034711;28;20084;-77
2023/06/27 04:52:27;;;;;;;4.38;1.83;;;;;;;15.03;76.36;101094.16;5034347;28;20075;-77
2023/06/27 04:55:32;;;;;;;5.18;1.45;;;;;;;15.10;76.00;101091.97;5034857;28;20064;-75
2023/06/27 04:58:36;;;;;;;4.53;1.13;;;;;;;15.23;75.34;101097.31;5034765;28;20122;-76
2023/06/27 05:01:39;;;;;;;5.88;1.67;;;;;;;15.32;74.41;101107.28;5020414;28;20112;-77
2023/06/27 05:04:43;;;;;;;8.48;1.52;;;;;;;15.26;74.93;101105.03;5027985;28;20454;-78
2023/06/27 05:07:46;;;;;;;3.97;1.73;;;;;;;15.17;75.13;101100.34;5028248;28;20555;-84
2023/06/27 05:10:50;;;;;;;5.85;1.55;;;;;;;15.17;76.19;101105.59;5028605;28;20497;-81
2023/06/27 05:13:54;;;;;;;4.68;1.75;;;;;;;15.25;75.67;101101.56;5034022;28;20059;-80
2023/06/27 05:16:57;;;;;;;5.00;1.40;;;;;;;15.39;75.26;101097.22;5034386;28;20134;-80
2023/06/27 05:20:00;;;;;;;4.43;1.55;;;;;;;15.35;75.40;101107.09;5022007;28;20052;-79
2023/06/27 05:23:05;;;;;;;4.72;1.35;;;;;;;15.38;75.35;101098.13;5034069;28;20072;-78
2023/06/27 05:26:08;;;;;;;3.88;1.52;;;;;;;15.30;76.04;101101.25;5034339;28;20179;-76
2023/06/27 05:29:11;;;;;;;4.15;1.80;;;;;;;15.40;75.55;101098.88;5021718;28;20557;-77
2023/06/27 05:32:15;;;;;;;4.47;1.20;;;;;;;15.41;75.40;101097.94;5034080;28;20414;-81
2023/06/27 05:35:18;;;;;;;5.82;1.67;;;;;;;15.46;75.47;101099.34;5034096;28;20064;-76
2023/06/27 05:38:22;;;;;;;3.58;1.80;;;;;;;15.53;74.76;101105.06;5034037;28;20099;-77
2023/06/27 05:41:25;;;;;;;8.00;2.03;;;;;;;15.47;74.68;101095.75;5033902;28;20510;-76
2023/06/27 05:44:29;;;;;;;3.55;1.75;;;;;;;15.56;74.95;101102.25;5021795;28;20095;-76
2023/06/27 05:47:32;;;;;;;5.88;2.08;;;;;;;15.73;74.75;101103.81;5033723;28;20068;-75
2023/06/27 05:50:35;;;;;;;6.15;1.77;;;;;;;15.73;74.26;101102.03;5034041;28;20414;-76
2023/06/27 05:53:39;;;;;;;4.63;1.88;;;;;;;15.83;74.19;101106.72;5033546;28;20517;-75
2023/06/27 05:56:43;;;;;;;2.78;1.20;;;;;;;15.88;74.10;101105.47;5033729;28;20392;-77
2023/06/27 05:59:48;;;;;;;6.47;1.20;;;;;;;16.07;73.62;101105.09;5033382;28;20510;-87
2023/06/27 06:02:54;;;;;;;6.07;2.03;;;;;;;16.02;73.43;101097.50;5032645;28;20037;-84
2023/06/27 06:06:00;;;;;;;5.47;1.60;;;;;;;16.15;73.61;101101.97;5033634;28;20106;-87
2023/06/27 06:09:06;;;;;;;5.03;1.60;;;;;;;16.28;72.72;101100.19;5033446;28;20045;-85
2023/06/27 06:12:10;;;;;;;6.07;1.65;;;;;;;16.35;70.97;101108.56;5033394;28;20568;-84
2023/06/27 06:15:14;;;;;;;2.92;1.27;;;;;;;16.50;69.91;101108.34;5033396;28;20068;-84
2023/06/27 06:18:40;;;;;;;4.47;1.55;;;;;;;16.57;69.99;101095.59;5021017;28;20586;-86
2023/06/27 06:21:48;;;;;;;6.88;1.77;;;;;;;16.73;69.50;101098.03;5019941;28;20095;-84
2023/06/27 06:35:32;;;;;;;4.10;1.50;;;;;;;17.12;63.47;101091.78;5857319;23;20149;-83
2023/06/27 06:38:44;;;;;;;6.22;2.08;;;;;;;17.17;61.18;101094.09;4994417;28;20053;-81
2023/06/27 06:41:47;;;;;;;7.80;1.85;;;;;;;17.28;60.76;101085.41;4993426;28;20048;-82
2023/06/27 06:44:58;;;;;;;6.97;2.58;;;;;;;17.39;60.62;101093.44;4981699;28;20050;-79
2023/06/27 06:48:06;;;;;;;6.38;2.17;;;;;;;17.34;59.34;101104.31;4992665;28;20050;-84
2023/06/27 07:11:24;;;;;;;6.15;1.85;;;;;;;17.78;59.06;101087.06;4993051;28;20046;-81
2023/06/27 07:14:28;;;;;;;4.95;2.10;;;;;;;17.97;58.91;101085.69;4992761;28;20053;-70
2023/06/27 07:17:31;;;;;;;6.70;1.80;;;;;;;17.96;58.02;101079.53;4992821;28;20041;-68
2023/06/27 07:20:34;;;;;;;4.97;1.90;;;;;;;18.12;58.94;101071.31;4992773;28;20112;-69
2023/06/27 07:23:37;;;;;;;5.95;1.75;;;;;;;18.28;58.49;101065.69;4992990;28;20089;-68
2023/06/27 07:26:41;;;;;;;9.90;1.88;;;;;;;18.44;57.55;101073.31;4992805;28;20053;-67
2023/06/27 07:29:44;;;;;;;6.32;1.73;;;;;;;18.47;57.17;101067.78;4992490;28;20041;-68
2023/06/27 07:32:47;;;;;;;11.05;1.95;;;;;;;18.55;56.29;101065.41;5012166;28;20045;-68
2023/06/27 07:35:51;;;;;;;6.68;1.92;;;;;;;18.63;56.13;101065.63;5012086;28;20049;-69
2023/06/27 07:38:58;;;;;;;5.70;1.65;;;;;;;18.67;55.21;101061.81;5032139;28;20103;-67
2023/06/27 07:42:01;;;;;;;10.00;2.10;;;;;;;18.71;54.86;101060.59;5031768;28;20040;-68
2023/06/27 07:45:05;;;;;;;3.95;1.27;;;;;;;18.79;55.39;101054.72;5031926;28;20048;-71
2023/06/27 07:48:08;;;;;;;5.65;1.73;;;;;;;18.91;55.37;101055.56;5031842;28;20048;-72
2023/06/27 07:51:12;;;;;;;5.65;1.77;;;;;;;18.96;54.49;101056.91;5031785;28;20526;-69
2023/06/27 07:54:15;;;;;;;7.80;2.13;;;;;;;18.93;53.84;101061.59;5031670;28;20104;-69
2023/06/27 07:57:19;;;;;;;5.82;1.38;;;;;;;18.93;53.76;101043.06;5031813;28;20110;-74
2023/06/27 08:00:22;;;;;;;6.05;1.77;;;;;;;19.04;53.44;101048.31;5032638;28;20167;-73
2023/06/27 08:03:26;;;;;;;9.38;1.50;;;;;;;19.09;52.75;101040.88;5035590;28;20100;-74
2023/06/27 08:06:29;;;;;;;6.20;1.65;;;;;;;19.13;51.82;101042.28;5035606;28;20211;-75
2023/06/27 08:09:36;;;;;;;4.10;1.63;;;;;;;19.22;52.17;101046.84;5035513;28;20108;-75
2023/06/27 08:12:40;;;;;;;6.88;2.00;;;;;;;19.26;51.10;101042.97;5035620;28;20060;-75
2023/06/27 08:15:45;;;;;;;8.70;1.83;;;;;;;19.34;50.86;101042.38;5035502;28;20052;-74
2023/06/27 08:18:48;;;;;;;5.00;1.60;;;;;;;19.46;51.15;101029.91;5035441;28;20091;-75
2023/06/27 08:21:52;;;;;;;4.55;1.48;;;;;;;19.36;50.63;101039.59;5035598;28;20079;-75
2023/06/27 08:24:55;;;;;;;3.80;1.30;;;;;;;19.45;50.28;101036.19;5035377;28;20051;-75
2023/06/27 08:27:59;;;;;;;5.28;2.25;;;;;;;19.60;50.32;101028.81;5035161;28;20036;-75
2023/06/27 08:31:03;;;;;;;7.10;1.73;;;;;;;19.53;49.24;101028.47;5035066;28;20100;-75
2023/06/27 08:34:09;;;;;;;7.57;1.58;;;;;;;19.58;48.67;101013.00;5035013;28;20091;-74
2023/06/27 08:37:13;;;;;;;4.60;1.48;;;;;;;19.68;48.02;101011.28;5034911;28;20055;-75
2023/06/27 08:40:22;;;;;;;7.28;2.42;;;;;;;19.84;46.82;101005.56;5034931;28;20091;-75
2023/06/27 08:43:26;;;;;;;8.80;1.40;;;;;;;19.96;46.94;101009.00;5034814;28;20554;-75
2023/06/27 08:46:31;;;;;;;6.80;1.30;;;;;;;20.02;46.24;100995.22;5035009;28;20052;-75
2023/06/27 08:49:35;;;;;;;4.22;1.20;;;;;;;20.20;46.89;101001.63;5022396;28;20104;-75
2023/06/27 08:52:43;;;;;;;6.68;1.75;;;;;;;20.31;45.62;100994.56;5034588;28;20096;-75
2023/06/27 08:56:05;;;;;;;4.57;1.02;;;;;;;20.47;44.91;100992.25;5034870;28;20056;-75
2023/06/27 08:59:13;;;;;;;6.35;1.48;;;;;;;20.46;45.10;100990.59;5034789;28;20048;-75
2023/06/27 09:02:17;;;;;;;5.68;1.55;;;;;;;20.53;45.39;100983.78;5034643;28;20415;-75
2023/06/27 09:05:20;;;;;;;7.97;1.50;;;;;;;20.64;44.83;100988.16;5034567;28;20041;-75
2023/06/27 09:08:24;;;;;;;5.10;2.20;;;;;;;20.46;44.27;100992.41;5034522;28;20044;-75
2023/06/27 09:11:28;;;;;;;4.05;1.40;;;;;;;20.52;44.05;100987.41;5034079;28;20419;-75
2023/06/27 09:14:31;;;;;;;6.65;1.58;;;;;;;20.49;44.01;100981.50;5034339;28;20045;-75
2023/06/27 09:17:34;;;;;;;4.57;1.30;;;;;;;20.67;43.58;100988.72;5034538;28;20155;-75
2023/06/27 09:20:38;;;;;;;4.45;1.13;;;;;;;20.80;43.30;100979.69;5034159;28;20091;-75
2023/06/27 09:23:42;;;;;;;6.03;1.77;;;;;;;20.54;40.40;100966.84;5034229;28;20435;-75
2023/06/27 09:26:45;;;;;;;5.85;1.33;;;;;;;20.65;41.30;100979.22;5034270;28;20099;-75
2023/06/27 09:29:48;;;;;;;6.20;1.13;;;;;;;20.80;40.54;100971.69;5033927;28;20048;-75
2023/06/27 09:32:53;;;;;;;6.07;1.50;;;;;;;20.75;40.55;100965.97;5033876;28;20080;-74
2023/06/27 09:35:56;;;;;;;4.90;1.25;;;;;;;20.86;40.49;100963.19;5033856;28;20112;-76
2023/06/27 09:39:06;;;;;;;4.82;1.67;;;;;;;20.98;40.54;100959.44;5033899;28;20120;-75
2023/06/27 09:42:09;;;;;;;7.68;1.35;;;;;;;21.14;40.14;100962.41;5034116;28;20048;-75
2023/06/27 09:45:14;;;;;;;5.47;1.05;;;;;;;21.30;39.62;100950.38;5033771;28;20136;-72
2023/06/27 09:48:18;;;;;;;6.63;1.40;;;;;;;21.36;38.58;100961.34;5033759;28;20049;-77
2023/06/27 09:51:28;;;;;;;5.07;1.52;;;;;;;21.16;38.20;100977.41;5033572;28;20533;-74
2023/06/27 09:54:31;;;;;;;5.00;0.95;;;;;;;21.19;38.25;100977.97;5033477;28;20111;-74
2023/06/27 09:57:34;;;;;;;4.53;1.30;;;;;;;21.35;38.26;100972.13;5033889;28;20052;-74
2023/06/27 10:00:38;;;;;;;4.40;1.23;;;;;;;21.54;36.55;100969.47;5033543;28;20123;-75
2023/06/27 10:03:48;;;;;;;5.40;2.00;;;;;;;21.77;37.04;100977.16;5032648;28;20068;-74
2023/06/27 10:06:52;;;;;;;3.20;1.02;;;;;;;21.79;36.72;100961.88;5032353;28;20048;-74
2023/06/27 10:09:55;;;;;;;5.60;1.20;;;;;;;21.59;37.05;100961.88;5032535;28;20568;-74
2023/06/27 10:12:58;;;;;;;3.25;0.73;;;;;;;21.62;37.58;100957.28;5033233;28;20048;-74
2023/06/27 10:16:02;;;;;;;2.65;0.95;;;;;;;21.45;35.81;100965.00;5033119;28;20583;-74
2023/06/27 10:19:05;;;;;;;4.65;1.23;;;;;;;21.32;36.15;100975.88;5033200;28;20068;-73
2023/06/27 10:22:11;;;;;;;4.47;1.05;;;;;;;21.29;36.58;100962.84;5032919;28;20107;-73
2023/06/27 10:25:16;;;;;;;6.63;1.50;;;;;;;21.45;36.78;100969.47;5032904;28;20039;-72
2023/06/27 10:28:20;;;;;;;5.15;1.20;;;;;;;21.63;37.28;100964.28;5032835;28;20068;-74
2023/06/27 10:31:45;;;;;;;4.57;1.10;;;;;;;21.50;37.46;100960.06;5032836;28;20493;-74
2023/06/27 10:34:48;;;;;;;6.38;1.73;;;;;;;21.80;38.14;100960.91;5032706;28;20049;-74
2023/06/27 10:38:06;;;;;;;3.20;1.10;;;;;;;22.10;38.40;100953.69;5032606;28;20080;-74
2023/06/27 10:41:11;;;;;;;5.40;1.02;;;;;;;21.86;35.82;100952.34;5032654;28;20052;-74
2023/06/27 10:44:17;;;;;;;7.82;1.40;;;;;;;21.96;36.85;100953.16;5032672;28;20458;-74
2023/06/27 10:47:20;;;;;;;6.03;1.83;;;;;;;21.98;36.95;100958.34;5032784;28;20044;-74
2023/06/27 10:50:24;;;;;;;4.85;1.85;;;;;;;22.15;37.78;100943.47;5032537;28;20529;-73
2023/06/27 10:53:27;;;;;;;3.58;1.00;;;;;;;22.03;37.59;100959.59;5032828;28;20068;-74
2023/06/27 10:56:33;;;;;;;7.43;1.58;;;;;;;21.97;37.03;100954.00;5032846;28;20052;-74
2023/06/27 10:59:38;;;;;;;6.50;1.60;;;;;;;21.91;37.07;100946.59;5032578;28;20091;-75
2023/06/27 11:02:43;;;;;;;4.60;1.30;;;;;;;21.92;37.46;100949.13;5032335;28;20055;-74
2023/06/27 11:05:57;;;;;;;5.90;1.42;;;;;;;21.93;38.98;100945.47;5019948;28;20072;-74
2023/06/27 11:09:02;;;;;;;8.50;2.20;;;;;;;21.99;38.42;100938.72;5032442;28;20510;-74
2023/06/27 11:12:15;;;;;;;5.57;1.77;;;;;;;22.24;38.60;100930.13;5032235;28;20048;-74
2023/06/27 11:15:19;;;;;;;10.10;1.95;;;;;;;22.35;37.56;100925.59;5032492;28;20044;-74
2023/06/27 11:18:26;;;;;;;4.85;1.50;;;;;;;22.37;36.78;100932.47;5032135;28;20044;-74
2023/06/27 11:21:31;;;;;;;3.53;1.63;;;;;;;22.55;37.07;100915.69;5032108;28;20071;-73
2023/06/27 11:24:35;;;;;;;3.92;1.08;;;;;;;22.68;36.61;100926.81;5032150;28;20522;-74
2023/06/27 11:27:38;;;;;;;6.03;2.03;;;;;;;22.61;36.58;100925.75;5032168;28;20099;-72
2023/06/27 11:30:43;;;;;;;5.43;2.10;;;;;;;22.46;36.74;100926.25;5032090;28;20039;-73
2023/06/27 11:33:56;;;;;;;4.72;1.52;;;;;;;22.49;36.95;100928.63;5031983;28;20128;-72
2023/06/27 11:36:59;;;;;;;5.70;1.38;;;;;;;22.51;37.28;100926.63;5038417;28;20060;-72
2023/06/27 11:40:08;;;;;;;6.28;1.48;;;;;;;22.60;37.52;100924.91;5038711;28;20059;-72
2023/06/27 11:43:15;;;;;;;8.80;2.22;;;;;;;22.70;35.71;100908.88;5038739;28;20048;-73
2023/06/27 11:46:19;;;;;;;3.15;1.30;;;;;;;22.99;35.64;100908.69;5038667;28;20463;-72
2023/06/27 11:49:23;;;;;;;6.03;1.30;;;;;;;22.95;36.11;100902.00;5038709;28;20099;-72
2023/06/27 11:52:29;;;;;;;8.32;1.48;;;;;;;22.90;36.57;100905.06;5026399;28;20128;-72
2023/06/27 11:55:41;;;;;;;4.57;1.58;;;;;;;22.88;35.12;100901.75;5038633;28;20136;-72
2023/06/27 11:58:50;;;;;;;9.13;1.50;;;;;;;22.82;35.13;100901.50;5038553;28;20135;-72
2023/06/27 12:01:55;;;;;;;5.63;1.77;;;;;;;22.65;35.05;100903.97;5038442;28;20056;-72
2023/06/27 12:04:58;;;;;;;4.32;1.70;;;;;;;22.35;36.29;100904.28;5038432;28;20039;-73
2023/06/27 12:08:07;;;;;;;6.60;1.60;;;;;;;22.54;36.36;100900.69;5038416;28;20044;-72
2023/06/27 12:11:10;;;;;;;5.00;1.30;;;;;;;22.68;35.85;100902.84;5038530;28;20045;-72
2023/06/27 12:14:21;;;;;;;6.15;1.77;;;;;;;22.63;35.29;100902.47;5038275;28;20080;-72
2023/06/27 12:17:24;;;;;;;4.55;1.30;;;;;;;22.80;34.86;100893.63;5025976;28;20124;-73
2023/06/27 12:20:44;;;;;;;5.97;1.92;;;;;;;22.50;35.72;100890.31;5038193;28;20558;-73
2023/06/27 12:23:48;;;;;;;6.82;1.75;;;;;;;22.58;35.70;100889.56;5038361;28;20168;-74
2023/06/27 12:26:51;;;;;;;3.95;1.20;;;;;;;22.73;36.31;100880.09;5038263;28;20073;-72
2023/06/27 12:29:55;;;;;;;6.57;1.25;;;;;;;22.44;35.24;100876.75;5037980;28;20049;-72
2023/06/27 12:32:58;;;;;;;5.50;1.65;;;;;;;22.52;35.71;100869.69;5037909;28;20084;-73
2023/06/27 12:36:02;;;;;;;5.50;1.92;;;;;;;22.59;36.12;100875.28;5037994;28;20116;-74
2023/06/27 12:39:05;;;;;;;4.82;1.42;;;;;;;23.03;36.57;100879.91;5038219;28;20107;-73
2023/06/27 12:42:08;;;;;;;4.65;1.50;;;;;;;22.81;35.79;100878.47;5025818;28;20047;-73
2023/06/27 12:45:12;;;;;;;4.03;1.30;;;;;;;23.05;36.00;100875.25;5038148;28;20071;-73
2023/06/27 12:48:15;;;;;;;5.03;1.42;;;;;;;23.01;35.42;100879.22;5033978;28;20133;-73
2023/06/27 12:51:21;;;;;;;3.05;1.00;;;;;;;23.16;35.31;100875.00;5033428;28;20048;-73
2023/06/27 12:54:24;;;;;;;6.57;2.25;;;;;;;23.74;34.63;100855.81;5034547;28;20108;-71
2023/06/27 12:57:27;;;;;;;4.57;1.23;;;;;;;23.70;33.91;100850.94;5034698;28;20044;-73
2023/06/27 13:00:37;;;;;;;7.43;1.58;;;;;;;24.02;34.65;100858.28;5034847;28;20183;-73
2023/06/27 13:03:40;;;;;;;3.00;1.38;;;;;;;24.18;34.07;100847.66;5034753;28;20124;-73
2023/06/27 13:06:44;;;;;;;4.97;1.45;;;;;;;24.03;34.09;100846.63;5034573;28;20043;-73
2023/06/27 13:09:48;;;;;;;5.20;1.50;;;;;;;23.82;34.61;100850.50;5034491;28;20458;-74
2023/06/27 13:12:54;;;;;;;7.53;2.10;;;;;;;23.84;33.71;100859.22;5034464;28;20096;-74
2023/06/27 13:15:57;;;;;;;3.60;1.40;;;;;;;24.06;33.88;100840.97;5034384;28;20516;-74
2023/06/27 13:19:05;;;;;;;6.50;2.38;;;;;;;23.72;34.13;100852.44;5034218;28;21009;-74
2023/06/27 13:22:08;;;;;;;5.78;1.65;;;;;;;23.66;33.85;100832.53;5034434;28;20064;-75
2023/06/27 13:25:11;;;;;;;5.30;1.73;;;;;;;23.50;34.83;100834.25;5034183;28;20469;-74
2023/06/27 13:28:15;;;;;;;8.15;1.77;;;;;;;23.60;34.43;100840.31;5034335;28;20056;-74
2023/06/27 13:31:18;;;;;;;5.68;1.33;;;;;;;24.01;34.08;100829.91;5033418;28;20485;-73
2023/06/27 13:34:22;;;;;;;4.07;1.50;;;;;;;24.64;33.26;100825.97;5034067;28;20044;-74
2023/06/27 13:37:27;;;;;;;4.32;1.50;;;;;;;25.10;31.50;100832.50;5033724;28;20064;-75
2023/06/27 13:40:30;;;;;;;6.20;1.80;;;;;;;24.99;31.84;100820.31;5033895;28;20666;-76
2023/06/27 13:43:37;;;;;;;12.73;1.35;;;;;;;25.11;31.91;100834.22;5021822;28;20052;-73
2023/06/27 13:46:41;;;;;;;4.95;1.73;;;;;;;24.62;32.46;100828.78;5034096;28;20052;-73
2023/06/27 13:49:45;;;;;;;4.60;1.70;;;;;;;25.25;31.73;100844.25;5021744;28;20200;-74
2023/06/27 13:52:48;;;;;;;4.38;1.50;;;;;;;24.93;30.43;100817.47;5033592;28;20056;-76
2023/06/27 13:55:53;;;;;;;3.78;1.13;;;;;;;25.00;30.81;100802.41;5033683;28;20095;-74
2023/06/27 13:58:59;;;;;;;4.25;1.30;;;;;;;24.65;31.07;100812.41;5032515;28;20044;-74
2023/06/27 14:02:04;;;;;;;7.35;1.70;;;;;;;25.03;31.65;100802.91;5033464;28;20537;-74
2023/06/27 14:05:09;;;;;;;4.28;1.67;;;;;;;25.64;31.40;100789.97;5033478;28;20060;-74
2023/06/27 14:08:13;;;;;;;5.43;1.20;;;;;;;25.30;30.47;100790.22;5033578;28;20513;-74
2023/06/27 14:11:18;;;;;;;4.05;1.20;;;;;;;24.59;30.89;100797.03;5033486;28;20096;-74
2023/06/27 14:14:21;;;;;;;6.30;1.35;;;;;;;23.97;32.31;100791.16;5033224;28;20048;-77
2023/06/27 14:17:25;;;;;;;4.38;1.20;;;;;;;23.41;33.16;100791.50;5033207;28;20096;-81
2023/06/27 14:20:28;;;;;;;5.43;1.80;;;;;;;24.07;32.19;100787.34;5033134;28;20570;-74
2023/06/27 14:23:35;;;;;;;4.93;1.52;;;;;;;24.72;32.76;100785.84;5033220;28;20084;-73
2023/06/27 14:26:39;;;;;;;3.83;1.25;;;;;;;25.43;30.33;100787.00;5010096;28;20056;-74
2023/06/27 14:29:43;;;;;;;5.50;1.23;;;;;;;27.07;29.59;100773.59;5033007;28;20108;-77
2023/06/27 14:32:50;;;;;;;4.72;1.60;;;;;;;27.17;27.53;100778.72;5032966;28;20095;-77
2023/06/27 14:35:55;;;;;;;4.47;1.38;;;;;;;27.74;27.45;100767.38;5033009;28;20048;-78
2023/06/27 14:38:59;;;;;;;3.17;1.27;;;;;;;28.73;26.30;100767.69;5032827;28;20561;-76
2023/06/27 14:42:03;;;;;;;4.95;1.25;;;;;;;27.32;27.23;100774.22;5033211;28;20144;-77
2023/06/27 14:45:07;;;;;;;5.22;1.50;;;;;;;27.26;27.48;100767.72;5032871;28;20048;-79
2023/06/27 14:48:13;;;;;;;5.38;1.60;;;;;;;27.14;28.70;100763.81;5032954;28;20052;-76
2023/06/27 14:51:18;;;;;;;3.47;1.05;;;;;;;27.48;27.86;100759.78;5032699;28;20103;-77